Time;durP1;ratioP1;P1;durP2;ratioP2;P2;SDS_P1;SDS_P2;PMS_P1;PMS_P2;Temp;Humidity;BMP_temperature;BMP_pressure;BME280_temperature;BME280_humidity;BME280_pressure;Samples;Min_cycle;Max_cycle;Signal;HPM_P1;HPM_P2
2022/10/27 00:02:16;;;;;;;2.70;1.33;;;20.20;63.10;;;;;;4911175;29;20054;-57
2022/10/27 00:04:43;;;;;;;4.80;1.77;;;20.20;63.10;;;;;;4911271;29;20052;-57
2022/10/27 00:07:12;;;;;;;6.32;0.75;;;20.20;63.20;;;;;;4911295;29;20122;-58
2022/10/27 00:09:39;;;;;;;2.65;0.82;;;20.20;63.30;;;;;;4912146;29;20147;-58
2022/10/27 00:12:06;;;;;;;10.82;1.92;;;20.20;63.30;;;;;;4910056;29;20060;-59
2022/10/27 00:14:33;;;;;;;2.17;1.17;;;20.10;63.20;;;;;;4910958;29;20485;-59
2022/10/27 00:17:00;;;;;;;2.05;0.57;;;20.10;63.30;;;;;;4912157;29;20119;-59
2022/10/27 00:19:27;;;;;;;6.38;0.88;;;20.10;63.40;;;;;;4930379;29;20052;-58
2022/10/27 00:21:54;;;;;;;1.83;0.70;;;20.10;63.40;;;;;;4930406;29;20056;-59
2022/10/27 00:24:22;;;;;;;1.13;0.68;;;20.00;63.40;;;;;;4930194;29;20040;-61
2022/10/27 00:26:49;;;;;;;2.53;0.20;;;20.00;63.50;;;;;;4924106;29;20052;-62
2022/10/27 00:29:16;;;;;;;3.80;0.50;;;20.00;63.50;;;;;;4928532;29;20517;-62
2022/10/27 00:31:43;;;;;;;3.08;0.73;;;19.90;63.50;;;;;;4929970;29;20123;-60
2022/10/27 00:34:10;;;;;;;4.88;0.20;;;19.90;63.60;;;;;;4928927;29;20071;-60
2022/10/27 00:36:37;;;;;;;3.90;1.15;;;19.90;63.60;;;;;;4930113;29;20083;-61
2022/10/27 00:39:04;;;;;;;6.15;0.13;;;19.90;63.70;;;;;;4929277;29;20058;-61
2022/10/27 00:41:35;;;;;;;6.13;0.20;;;19.90;63.80;;;;;;4930939;29;20628;-61
2022/10/27 00:44:23;;;;;;;1.48;0.10;;;19.80;63.80;;;;;;4933312;29;20099;-60
2022/10/27 00:46:50;;;;;;;3.10;0.10;;;19.80;63.80;;;;;;4933640;29;20058;-60
2022/10/27 00:49:22;;;;;;;4.05;0.25;;;19.80;63.90;;;;;;4933458;29;20056;-60
2022/10/27 00:51:55;;;;;;;3.03;0.30;;;19.80;64.00;;;;;;4933323;29;20047;-61
2022/10/27 00:54:24;;;;;;;3.53;0.68;;;19.80;64.10;;;;;;4933328;29;20044;-60
2022/10/27 00:56:54;;;;;;;2.13;0.50;;;19.70;64.10;;;;;;4933290;29;20039;-60
2022/10/27 00:59:21;;;;;;;0.63;0.10;;;19.70;64.10;;;;;;4933016;29;20504;-61
2022/10/27 01:01:52;;;;;;;3.03;0.55;;;19.70;64.20;;;;;;4933121;29;20144;-60
2022/10/27 01:04:25;;;;;;;1.50;0.20;;;19.70;64.30;;;;;;4931615;29;20071;-61
2022/10/27 01:06:52;;;;;;;3.28;0.10;;;19.70;64.30;;;;;;4932489;29;20102;-60
2022/10/27 01:09:20;;;;;;;0.65;0.20;;;19.60;64.30;;;;;;4932964;29;20134;-60
2022/10/27 01:11:47;;;;;;;3.38;1.02;;;19.60;64.30;;;;;;4932867;29;20135;-60
2022/10/27 01:14:15;;;;;;;2.97;0.20;;;19.60;64.40;;;;;;4922443;29;20135;-60
2022/10/27 01:16:52;;;;;;;1.48;0.20;;;19.60;64.40;;;;;;4914007;29;20086;-61
2022/10/27 01:19:46;;;;;;;6.32;1.15;;;19.60;64.50;;;;;;4927270;29;20127;-61
2022/10/27 01:22:20;;;;;;;3.08;0.40;;;19.60;64.50;;;;;;4931358;29;20469;-60
2022/10/27 01:25:03;;;;;;;0.98;0.22;;;19.50;64.50;;;;;;4932682;29;20651;-60
2022/10/27 01:27:57;;;;;;;1.33;0.10;;;19.50;64.60;;;;;;4932372;29;20122;-60
2022/10/27 01:30:28;;;;;;;1.85;0.13;;;19.50;64.60;;;;;;4930459;29;20142;-61
2022/10/27 01:33:06;;;;;;;1.30;0.20;;;19.50;64.80;;;;;;4931152;29;20374;-61
2022/10/27 01:35:42;;;;;;;0.38;0.35;;;19.50;64.80;;;;;;4932651;29;20068;-62
2022/10/27 01:38:16;;;;;;;2.25;0.20;;;19.40;64.70;;;;;;4932343;29;20098;-61
2022/10/27 01:40:49;;;;;;;2.15;1.27;;;19.40;64.80;;;;;;4932512;29;20050;-60
2022/10/27 01:43:20;;;;;;;3.35;0.30;;;19.40;64.80;;;;;;4932492;29;20143;-60
2022/10/27 01:45:48;;;;;;;1.92;0.13;;;19.40;64.90;;;;;;4932552;29;20046;-60
2022/10/27 01:48:17;;;;;;;1.02;0.47;;;19.40;64.90;;;;;;4932534;29;20131;-59
2022/10/27 01:50:44;;;;;;;3.50;0.45;;;19.40;64.90;;;;;;4932313;29;20083;-60
2022/10/27 01:53:12;;;;;;;6.60;0.82;;;19.30;64.90;;;;;;4931135;29;20043;-59
2022/10/27 01:55:49;;;;;;;4.93;1.13;;;19.30;64.90;;;;;;4931899;29;20043;-58
2022/10/27 01:58:48;;;;;;;2.53;1.52;;;19.30;64.90;;;;;;4932387;29;20154;-57
2022/10/27 02:01:31;;;;;;;5.20;1.35;;;19.30;64.90;;;;;;4932147;29;20587;-57
2022/10/27 02:04:05;;;;;;;4.35;1.60;;;19.30;64.90;;;;;;4932071;29;20059;-57
2022/10/27 02:06:41;;;;;;;3.15;1.33;;;19.20;64.90;;;;;;4931707;29;20592;-58
2022/10/27 02:09:13;;;;;;;5.35;1.63;;;19.20;64.90;;;;;;4930667;29;20115;-58
2022/10/27 02:11:44;;;;;;;3.28;0.82;;;19.20;64.90;;;;;;4931596;29;20044;-59
2022/10/27 02:14:12;;;;;;;5.05;1.10;;;19.20;64.90;;;;;;4931936;29;20140;-58
2022/10/27 02:16:43;;;;;;;3.17;0.45;;;19.20;65.00;;;;;;4931877;29;20121;-58
2022/10/27 02:19:18;;;;;;;0.30;0.20;;;19.20;65.50;;;;;;4932015;29;20122;-57
2022/10/27 02:21:49;;;;;;;2.15;0.40;;;19.20;64.90;;;;;;4931430;29;20135;-57
2022/10/27 02:24:16;;;;;;;2.22;0.43;;;19.10;64.90;;;;;;4931733;29;20054;-58
2022/10/27 02:26:46;;;;;;;0.43;0.10;;;19.10;64.90;;;;;;4931110;29;20054;-59
2022/10/27 02:29:18;;;;;;;0.95;0.10;;;19.10;64.90;;;;;;4931699;29;20075;-60
2022/10/27 02:31:50;;;;;;;1.65;0.28;;;19.10;64.90;;;;;;4931785;29;20067;-60
2022/10/27 02:34:19;;;;;;;9.90;0.40;;;19.10;64.90;;;;;;4931624;29;20050;-59
2022/10/27 02:36:47;;;;;;;0.77;0.10;;;19.10;64.90;;;;;;4931174;29;20543;-58
2022/10/27 02:39:14;;;;;;;6.43;0.20;;;19.10;65.00;;;;;;4931074;29;20055;-59
2022/10/27 02:41:41;;;;;;;5.57;0.22;;;19.00;64.90;;;;;;4931368;29;20455;-57
2022/10/27 02:44:08;;;;;;;2.97;0.20;;;19.00;64.90;;;;;;4931455;29;20123;-59
2022/10/27 02:46:35;;;;;;;2.42;0.10;;;19.00;64.90;;;;;;4931464;29;20044;-56
2022/10/27 02:49:02;;;;;;;3.35;0.22;;;19.00;64.80;;;;;;4931246;29;20122;-58
2022/10/27 02:51:30;;;;;;;0.63;0.10;;;19.00;64.90;;;;;;4929758;29;20048;-59
2022/10/27 02:53:58;;;;;;;1.63;0.20;;;19.00;64.90;;;;;;4930841;29;20555;-60
2022/10/27 02:56:25;;;;;;;4.75;0.10;;;19.00;64.90;;;;;;4929487;29;20044;-59
2022/10/27 02:58:52;;;;;;;8.82;0.25;;;19.00;64.80;;;;;;4930822;29;20052;-60
2022/10/27 03:01:19;;;;;;;2.65;0.10;;;19.00;65.40;;;;;;4931549;29;20562;-59
2022/10/27 03:03:46;;;;;;;3.95;0.60;;;19.00;64.80;;;;;;4931195;29;20103;-58
2022/10/27 03:06:13;;;;;;;2.08;0.20;;;18.90;64.80;;;;;;4930732;29;20049;-58
2022/10/27 03:08:41;;;;;;;1.75;0.10;;;18.90;64.80;;;;;;4930614;29;20488;-58
2022/10/27 03:11:08;;;;;;;6.32;1.08;;;18.90;64.80;;;;;;4930996;29;20059;-58
2022/10/27 03:13:35;;;;;;;3.47;0.15;;;18.90;64.80;;;;;;4916640;29;20183;-57
2022/10/27 03:16:02;;;;;;;1.27;0.17;;;18.90;64.80;;;;;;4912020;29;20428;-58
2022/10/27 03:18:29;;;;;;;10.05;2.38;;;18.80;64.70;;;;;;4925867;29;20039;-57
2022/10/27 03:20:56;;;;;;;0.70;0.10;;;18.90;64.90;;;;;;4930953;29;20040;-58
2022/10/27 03:23:23;;;;;;;0.93;0.10;;;18.80;64.70;;;;;;4930093;29;20051;-57
2022/10/27 03:25:51;;;;;;;4.57;0.20;;;18.80;64.70;;;;;;4930683;29;20039;-58
2022/10/27 03:28:18;;;;;;;0.40;0.10;;;18.80;64.80;;;;;;4930912;29;20043;-58
2022/10/27 03:30:45;;;;;;;1.90;0.68;;;18.80;64.80;;;;;;4930900;29;20051;-57
2022/10/27 03:33:12;;;;;;;1.02;0.30;;;18.80;64.80;;;;;;4930753;29;20158;-58
2022/10/27 03:35:40;;;;;;;0.20;0.20;;;18.80;64.80;;;;;;4930488;29;20042;-57
2022/10/27 03:38:07;;;;;;;7.10;1.63;;;18.80;64.80;;;;;;4930049;29;20050;-58
2022/10/27 03:40:34;;;;;;;0.25;0.25;;;18.80;64.80;;;;;;4914373;29;20040;-58
2022/10/27 03:43:03;;;;;;;4.57;0.20;;;18.80;64.80;;;;;;4911441;29;20040;-57
2022/10/27 03:45:30;;;;;;;4.13;0.10;;;18.70;64.70;;;;;;4911417;29;20040;-57
2022/10/27 03:48:01;;;;;;;2.00;0.10;;;18.80;64.80;;;;;;4914219;29;20044;-58
2022/10/27 03:50:28;;;;;;;1.52;0.30;;;18.70;64.70;;;;;;4930083;29;20055;-56
2022/10/27 03:52:56;;;;;;;0.75;0.32;;;18.70;64.70;;;;;;4929967;29;20403;-57
2022/10/27 03:55:23;;;;;;;6.43;0.10;;;18.80;64.90;;;;;;4922147;29;20063;-58
2022/10/27 03:57:50;;;;;;;3.15;0.30;;;18.70;64.80;;;;;;4919103;29;20067;-58
2022/10/27 04:00:19;;;;;;;0.10;0.10;;;18.70;64.80;;;;;;4911292;29;20048;-58
2022/10/27 04:02:46;;;;;;;0.73;0.20;;;18.70;64.80;;;;;;4910105;29;20040;-58
2022/10/27 04:05:14;;;;;;;0.52;0.10;;;18.70;64.80;;;;;;4911333;29;20068;-59
2022/10/27 04:07:41;;;;;;;0.63;0.10;;;18.70;64.80;;;;;;4910742;29;20059;-58
2022/10/27 04:10:08;;;;;;;4.75;0.52;;;18.60;64.80;;;;;;4911311;29;20584;-58
2022/10/27 04:12:35;;;;;;;2.15;0.10;;;18.60;64.80;;;;;;4911228;29;20044;-59
2022/10/27 04:15:03;;;;;;;1.75;0.10;;;18.60;64.80;;;;;;4910893;29;20151;-59
2022/10/27 04:17:31;;;;;;;2.50;0.20;;;18.60;64.80;;;;;;4919503;29;20111;-60
2022/10/27 04:19:58;;;;;;;1.17;0.10;;;18.60;64.80;;;;;;4933889;29;20040;-55
2022/10/27 04:22:25;;;;;;;6.05;0.55;;;18.60;64.80;;;;;;4930251;29;20043;-58
2022/10/27 04:24:52;;;;;;;0.10;0.05;;;18.60;64.90;;;;;;4925911;29;20134;-61
2022/10/27 04:27:19;;;;;;;0.75;0.43;;;18.60;65.00;;;;;;4932576;29;20048;-60
2022/10/27 04:29:46;;;;;;;1.42;0.10;;;18.60;65.00;;;;;;4933325;29;20123;-61
2022/10/27 04:32:13;;;;;;;2.60;0.17;;;18.60;65.00;;;;;;4933256;29;20051;-59
2022/10/27 04:34:42;;;;;;;2.20;0.20;;;18.60;65.00;;;;;;4933937;29;20488;-59
2022/10/27 04:37:09;;;;;;;5.68;0.10;;;18.60;65.00;;;;;;4933182;29;20043;-57
2022/10/27 04:39:36;;;;;;;5.20;0.30;;;18.50;64.90;;;;;;4933392;29;20051;-59
2022/10/27 04:42:03;;;;;;;3.95;0.20;;;18.60;65.00;;;;;;4933130;29;20050;-56
2022/10/27 04:44:30;;;;;;;0.70;0.20;;;18.60;65.00;;;;;;4933282;29;20865;-58
2022/10/27 04:46:57;;;;;;;4.95;0.10;;;18.60;64.90;;;;;;4933025;29;20139;-53
2022/10/27 04:49:24;;;;;;;0.90;0.20;;;18.60;64.90;;;;;;4932610;29;20138;-58
2022/10/27 04:51:52;;;;;;;3.65;0.10;;;18.60;64.90;;;;;;4932869;29;20047;-58
2022/10/27 04:54:19;;;;;;;4.55;0.30;;;18.60;64.90;;;;;;4932712;29;20098;-59
2022/10/27 04:56:46;;;;;;;1.35;0.43;;;18.50;64.90;;;;;;4931329;29;20051;-58
2022/10/27 04:59:13;;;;;;;0.82;0.40;;;18.50;64.80;;;;;;4932924;29;20075;-58
2022/10/27 05:01:40;;;;;;;1.95;0.10;;;18.50;64.80;;;;;;4932193;29;20598;-59
2022/10/27 05:04:07;;;;;;;1.15;0.88;;;18.50;64.80;;;;;;4932104;29;20122;-57
2022/10/27 05:06:34;;;;;;;4.30;0.20;;;18.50;64.80;;;;;;4932784;29;20054;-56
2022/10/27 05:09:03;;;;;;;3.50;0.60;;;18.50;64.70;;;;;;4932873;29;20471;-58
2022/10/27 05:11:30;;;;;;;3.42;0.20;;;18.50;64.80;;;;;;4931764;29;20496;-57
2022/10/27 05:13:57;;;;;;;3.05;0.63;;;18.50;64.80;;;;;;4924911;29;20138;-59
2022/10/27 05:16:24;;;;;;;0.63;0.20;;;18.50;64.90;;;;;;4924367;29;20048;-59
2022/10/27 05:18:51;;;;;;;4.70;0.40;;;18.50;64.80;;;;;;4930131;29;20044;-58
2022/10/27 05:21:18;;;;;;;6.82;0.85;;;18.50;65.40;;;;;;4931340;29;20099;-63
2022/10/27 05:23:45;;;;;;;0.75;0.43;;;18.50;64.80;;;;;;4929358;29;20591;-59
2022/10/27 05:26:13;;;;;;;2.10;0.30;;;18.50;64.80;;;;;;4932023;29;20397;-60
2022/10/27 05:28:42;;;;;;;3.80;1.13;;;18.50;64.80;;;;;;4932251;29;20046;-56
2022/10/27 05:31:09;;;;;;;4.90;0.20;;;18.50;64.80;;;;;;4932223;29;20416;-60
2022/10/27 05:33:36;;;;;;;2.80;0.28;;;18.50;64.90;;;;;;4931906;29;20142;-58
2022/10/27 05:36:04;;;;;;;2.38;0.10;;;18.50;64.90;;;;;;4932164;29;20054;-58
2022/10/27 05:38:31;;;;;;;0.30;0.30;;;18.40;64.80;;;;;;4932221;29;20527;-59
2022/10/27 05:40:58;;;;;;;0.95;0.20;;;18.50;64.90;;;;;;4931850;29;20067;-59
2022/10/27 05:43:26;;;;;;;6.13;0.30;;;18.50;64.90;;;;;;4932142;29;20127;-57
2022/10/27 05:45:53;;;;;;;2.50;0.50;;;18.50;64.90;;;;;;4931980;29;20043;-58
2022/10/27 05:48:20;;;;;;;1.48;0.40;;;18.50;64.90;;;;;;4931692;29;20053;-56
2022/10/27 05:50:53;;;;;;;7.43;0.90;;;18.40;64.80;;;;;;4931806;29;20046;-58
2022/10/27 05:53:20;;;;;;;4.43;0.30;;;18.50;64.80;;;;;;4931875;29;20126;-55
2022/10/27 05:55:47;;;;;;;2.95;0.52;;;18.40;64.80;;;;;;4930009;29;20051;-56
2022/10/27 05:58:15;;;;;;;5.03;0.88;;;18.40;64.90;;;;;;4928468;29;20044;-62
2022/10/27 06:00:43;;;;;;;0.77;0.20;;;18.40;64.90;;;;;;4931804;29;20393;-61
2022/10/27 06:03:19;;;;;;;1.20;0.40;;;18.40;65.10;;;;;;4931386;29;20068;-62
2022/10/27 06:05:46;;;;;;;2.85;0.30;;;18.50;65.20;;;;;;4924184;29;20055;-62
2022/10/27 06:08:13;;;;;;;2.90;0.82;;;18.50;65.20;;;;;;4931223;29;20040;-63
2022/10/27 06:10:40;;;;;;;3.88;0.20;;;18.50;65.20;;;;;;4933285;29;20509;-61
2022/10/27 06:13:07;;;;;;;4.25;0.30;;;18.50;65.10;;;;;;4930666;29;20046;-62
2022/10/27 06:15:35;;;;;;;0.63;0.30;;;18.50;65.10;;;;;;4920718;29;20082;-62
2022/10/27 06:18:03;;;;;;;5.80;0.52;;;18.60;65.00;;;;;;4930806;29;20554;-61
2022/10/27 06:20:30;;;;;;;3.47;0.30;;;18.60;64.90;;;;;;4931407;29;20083;-61
2022/10/27 06:22:57;;;;;;;3.75;0.45;;;18.60;64.90;;;;;;4929525;29;20046;-63
2022/10/27 06:25:25;;;;;;;4.88;0.55;;;18.70;64.90;;;;;;4929852;29;20138;-62
2022/10/27 06:27:52;;;;;;;2.17;0.50;;;18.70;64.80;;;;;;4931085;29;20046;-62
2022/10/27 06:30:19;;;;;;;3.10;0.98;;;18.70;64.80;;;;;;4931037;29;20504;-63
2022/10/27 06:32:46;;;;;;;11.55;0.43;;;18.80;64.60;;;;;;4930778;29;20135;-61
2022/10/27 06:35:14;;;;;;;4.00;0.50;;;18.80;64.60;;;;;;4931078;29;20052;-62
2022/10/27 06:37:44;;;;;;;2.38;0.30;;;18.90;64.50;;;;;;4931225;29;20040;-58
2022/10/27 06:40:12;;;;;;;2.47;0.20;;;18.90;64.40;;;;;;4930475;29;20079;-60
2022/10/27 06:42:39;;;;;;;7.78;1.17;;;18.90;64.20;;;;;;4931089;29;20044;-54
2022/10/27 06:45:07;;;;;;;2.80;0.95;;;19.00;64.60;;;;;;4931295;29;20055;-69
2022/10/27 06:47:34;;;;;;;4.13;0.73;;;19.30;64.80;;;;;;4931096;29;20040;-69
2022/10/27 06:50:01;;;;;;;4.18;0.80;;;19.50;64.40;;;;;;4932080;29;20044;-67
2022/10/27 06:52:30;;;;;;;1.95;0.30;;;19.80;63.80;;;;;;4932549;29;20054;-70
2022/10/27 06:54:57;;;;;;;7.05;0.43;;;20.10;63.10;;;;;;4919026;29;20127;-69
2022/10/27 06:57:24;;;;;;;5.45;0.50;;;20.30;62.50;;;;;;4932295;29;20496;-64
2022/10/27 06:59:51;;;;;;;9.93;0.52;;;20.50;61.90;;;;;;4930353;29;20135;-58
2022/10/27 07:02:18;;;;;;;2.70;0.30;;;20.70;61.50;;;;;;4930688;29;20058;-60
2022/10/27 07:04:45;;;;;;;2.92;0.40;;;20.80;61.00;;;;;;4930974;29;20063;-58
2022/10/27 07:07:12;;;;;;;5.05;0.20;;;21.00;60.60;;;;;;4915199;29;20122;-56
2022/10/27 07:09:40;;;;;;;8.98;0.32;;;21.10;60.30;;;;;;4930561;29;20054;-58
2022/10/27 07:12:07;;;;;;;3.80;0.32;;;21.20;59.80;;;;;;4930488;29;20052;-60
2022/10/27 07:14:34;;;;;;;8.20;0.35;;;21.30;59.40;;;;;;4929508;29;20059;-64
2022/10/27 07:17:01;;;;;;;4.78;0.55;;;21.40;59.10;;;;;;4933088;29;20413;-68
2022/10/27 07:19:28;;;;;;;5.00;1.10;;;21.50;58.70;;;;;;4933565;29;20035;-69
2022/10/27 07:21:55;;;;;;;9.27;0.20;;;21.50;58.40;;;;;;4929896;29;20074;-50
2022/10/27 07:24:22;;;;;;;4.00;0.20;;;21.60;58.20;;;;;;4929531;29;20049;-63
2022/10/27 07:26:51;;;;;;;4.43;0.57;;;21.70;58.00;;;;;;4930858;29;20489;-65
2022/10/27 07:29:18;;;;;;;3.95;0.38;;;21.80;57.70;;;;;;4932780;29;20124;-61
2022/10/27 07:31:45;;;;;;;1.27;0.10;;;21.80;57.50;;;;;;4930540;29;20074;-62
2022/10/27 07:34:13;;;;;;;3.38;0.70;;;21.90;57.30;;;;;;4930266;29;20058;-58
2022/10/27 07:36:40;;;;;;;2.55;0.98;;;21.90;57.10;;;;;;4930918;29;20123;-62
2022/10/27 07:39:07;;;;;;;4.97;0.63;;;22.00;56.90;;;;;;4930498;29;20035;-62
2022/10/27 07:41:34;;;;;;;3.17;0.40;;;22.00;56.60;;;;;;4930161;29;20564;-70
2022/10/27 07:44:03;;;;;;;4.35;0.20;;;22.10;56.50;;;;;;4926953;29;20040;-74
2022/10/27 07:46:30;;;;;;;1.05;0.17;;;22.20;56.30;;;;;;4933100;29;20075;-73
2022/10/27 07:48:57;;;;;;;2.80;0.40;;;22.20;56.10;;;;;;4930549;29;20032;-58
2022/10/27 07:51:24;;;;;;;3.45;0.30;;;22.30;56.10;;;;;;4930707;29;20078;-56
2022/10/27 07:53:51;;;;;;;2.58;0.20;;;22.30;55.90;;;;;;4934011;29;20052;-60
2022/10/27 07:56:18;;;;;;;2.47;0.30;;;22.30;55.80;;;;;;4933620;29;20095;-56
2022/10/27 07:58:49;;;;;;;5.63;1.30;;;22.30;55.70;;;;;;4933699;29;20040;-61
2022/10/27 08:01:17;;;;;;;12.02;2.28;;;22.40;55.60;;;;;;4919003;29;20046;-53
2022/10/27 08:03:44;;;;;;;4.00;0.32;;;22.40;55.50;;;;;;4932921;29;20055;-55
2022/10/27 08:06:11;;;;;;;14.90;0.70;;;22.40;55.40;;;;;;4933916;29;20432;-51
2022/10/27 08:08:38;;;;;;;6.68;0.47;;;22.50;55.30;;;;;;4933905;29;20040;-53
2022/10/27 08:11:06;;;;;;;8.48;0.45;;;22.50;55.20;;;;;;4931643;29;20074;-55
2022/10/27 08:13:33;;;;;;;1.58;0.50;;;22.40;55.10;;;;;;4926138;29;20579;-53
2022/10/27 08:15:59;;;;;;;2.63;0.47;;;22.40;55.20;;;;;;4933177;29;20139;-54
2022/10/27 08:18:28;;;;;;;3.17;1.05;;;22.40;55.90;;;;;;4934023;29;20048;-52
2022/10/27 08:20:55;;;;;;;3.85;1.10;;;22.30;55.30;;;;;;4929996;29;20048;-53
2022/10/27 08:23:24;;;;;;;3.80;1.05;;;22.30;55.40;;;;;;4933701;29;20051;-56
2022/10/27 08:25:51;;;;;;;5.60;0.57;;;22.30;55.40;;;;;;4933459;29;20058;-52
2022/10/27 08:28:19;;;;;;;2.95;0.63;;;22.30;55.40;;;;;;4933331;29;20040;-52
2022/10/27 08:30:46;;;;;;;4.93;1.27;;;22.30;55.30;;;;;;4933372;29;20114;-55
2022/10/27 08:33:13;;;;;;;3.22;1.55;;;22.30;55.30;;;;;;4933602;29;20054;-53
2022/10/27 08:35:41;;;;;;;4.00;0.40;;;22.30;55.30;;;;;;4933167;29;20422;-52
2022/10/27 08:38:12;;;;;;;6.47;0.93;;;22.30;55.30;;;;;;4933463;29;20043;-52
2022/10/27 08:40:51;;;;;;;8.73;0.50;;;22.30;55.30;;;;;;4933740;29;20062;-52
2022/10/27 08:44:04;;;;;;;6.00;0.30;;;22.30;55.20;;;;;;4933867;29;20050;-54
2022/10/27 08:46:39;;;;;;;4.78;0.70;;;22.30;55.20;;;;;;4892725;29;20140;-50
2022/10/27 08:49:14;;;;;;;1.80;0.30;;;22.30;55.30;;;;;;4892630;29;20155;-55
2022/10/27 08:51:45;;;;;;;9.43;0.52;;;22.30;55.30;;;;;;4892585;29;20168;-53
2022/10/27 08:54:12;;;;;;;3.85;0.30;;;22.30;55.40;;;;;;4892601;29;20045;-54
2022/10/27 08:56:42;;;;;;;4.97;1.10;;;22.30;55.40;;;;;;4891541;29;20052;-51
2022/10/27 08:59:15;;;;;;;5.80;0.60;;;22.30;55.30;;;;;;4892403;29;20576;-52
2022/10/27 09:01:51;;;;;;;3.17;0.40;;;22.30;55.30;;;;;;4892157;29;20156;-50
2022/10/27 09:04:43;;;;;;;3.17;0.35;;;22.30;55.30;;;;;;4892330;29;20120;-51
2022/10/27 09:07:18;;;;;;;3.17;0.70;;;22.40;55.40;;;;;;4892548;29;20104;-51
2022/10/27 09:09:52;;;;;;;2.73;1.03;;;22.40;55.40;;;;;;4892139;29;20045;-52
2022/10/27 09:12:34;;;;;;;2.47;0.30;;;22.40;55.40;;;;;;4884747;29;20584;-50
2022/10/27 09:15:32;;;;;;;5.47;1.55;;;22.50;55.40;;;;;;4890887;29;20052;-54
2022/10/27 09:18:04;;;;;;;6.13;1.00;;;22.50;55.30;;;;;;4880579;29;20470;-56
2022/10/27 09:20:37;;;;;;;9.88;1.15;;;22.50;55.20;;;;;;4885862;29;20052;-54
2022/10/27 09:23:13;;;;;;;1.48;0.30;;;22.50;55.10;;;;;;4924354;29;20076;-55
2022/10/27 09:25:41;;;;;;;10.75;0.93;;;22.50;55.10;;;;;;4932428;29;20047;-55
2022/10/27 09:28:16;;;;;;;7.07;1.70;;;22.40;55.10;;;;;;4932703;29;20039;-56
2022/10/27 09:30:45;;;;;;;2.35;0.63;;;22.40;55.70;;;;;;4932575;29;20051;-55
2022/10/27 09:33:16;;;;;;;5.93;0.82;;;22.30;55.20;;;;;;4932601;29;20047;-59
2022/10/27 09:35:44;;;;;;;0.45;0.40;;;22.30;55.30;;;;;;4929460;29;20077;-56
2022/10/27 09:38:21;;;;;;;5.13;0.20;;;22.30;55.40;;;;;;4927950;29;20155;-56
2022/10/27 09:40:50;;;;;;;9.23;1.95;;;22.20;55.50;;;;;;4928979;29;20135;-56
2022/10/27 09:43:20;;;;;;;2.22;1.10;;;22.20;55.60;;;;;;4932597;29;20078;-55
2022/10/27 09:45:54;;;;;;;2.55;0.40;;;22.20;55.80;;;;;;4932616;29;20162;-54
2022/10/27 09:48:25;;;;;;;11.05;1.75;;;22.20;55.90;;;;;;4932535;29;20489;-55
2022/10/27 09:50:55;;;;;;;8.10;0.77;;;22.20;56.00;;;;;;4930917;29;20040;-54
2022/10/27 09:53:47;;;;;;;5.72;1.70;;;22.10;56.00;;;;;;4930642;29;20098;-56
2022/10/27 09:56:18;;;;;;;5.50;0.30;;;22.20;56.00;;;;;;4930705;29;20134;-57
2022/10/27 09:58:56;;;;;;;5.13;0.85;;;22.10;56.20;;;;;;4911555;29;20463;-59
2022/10/27 10:01:27;;;;;;;6.47;0.38;;;22.10;56.20;;;;;;4931224;29;20040;-59
2022/10/27 10:04:05;;;;;;;3.33;0.47;;;22.10;56.20;;;;;;4931025;29;20039;-59
2022/10/27 10:06:35;;;;;;;2.72;0.63;;;22.10;56.30;;;;;;4928553;29;20318;-49
2022/10/27 10:09:21;;;;;;;4.65;0.60;;;22.20;56.40;;;;;;4928707;29;20551;-51
2022/10/27 10:11:48;;;;;;;9.90;1.37;;;22.20;56.40;;;;;;4931172;29;20615;-49
2022/10/27 10:14:22;;;;;;;4.55;0.50;;;22.20;56.50;;;;;;4930209;29;20094;-53
2022/10/27 10:16:49;;;;;;;7.78;0.57;;;22.20;56.50;;;;;;4931576;29;20082;-54
2022/10/27 10:19:18;;;;;;;7.20;0.60;;;22.30;56.50;;;;;;4931375;29;20043;-55
2022/10/27 10:21:50;;;;;;;12.15;2.08;;;22.30;56.50;;;;;;4949821;28;20662;-56
2022/10/27 10:24:20;;;;;;;24.25;5.40;;;22.30;56.40;;;;;;4950032;28;20503;-54
2022/10/27 10:26:50;;;;;;;16.00;4.78;;;22.30;56.40;;;;;;4932334;28;20602;-54
2022/10/27 10:29:27;;;;;;;13.60;3.03;;;22.40;56.40;;;;;;4936624;29;20716;-54
2022/10/27 10:32:07;;;;;;;7.25;1.63;;;22.40;56.30;;;;;;4934644;29;20136;-52
2022/10/27 10:34:35;;;;;;;9.45;1.10;;;22.50;56.20;;;;;;4938563;29;20052;-54
2022/10/27 10:37:03;;;;;;;9.93;1.25;;;22.50;56.20;;;;;;4938095;28;20705;-55
2022/10/27 10:39:36;;;;;;;10.18;0.85;;;22.50;56.10;;;;;;4936684;28;20069;-53
2022/10/27 10:42:18;;;;;;;5.68;0.85;;;22.60;56.10;;;;;;4945554;29;20094;-56
2022/10/27 10:44:45;;;;;;;4.47;0.70;;;22.60;55.90;;;;;;4948059;29;20070;-54
2022/10/27 10:47:25;;;;;;;2.30;0.50;;;22.60;56.00;;;;;;4949614;28;20094;-55
2022/10/27 10:49:56;;;;;;;5.10;0.60;;;22.70;55.90;;;;;;4934272;28;20043;-53
2022/10/27 10:52:28;;;;;;;6.47;1.27;;;22.70;55.90;;;;;;4936246;29;20083;-51
2022/10/27 10:54:57;;;;;;;1.05;0.73;;;22.80;55.90;;;;;;4938111;28;20063;-52
2022/10/27 10:57:29;;;;;;;9.68;1.10;;;22.80;55.90;;;;;;4937796;28;20051;-54
2022/10/27 10:59:58;;;;;;;9.00;1.15;;;22.80;55.80;;;;;;4943299;28;20072;-53
2022/10/27 11:02:28;;;;;;;2.45;0.65;;;22.90;55.80;;;;;;4943258;29;20050;-53
2022/10/27 11:04:59;;;;;;;5.47;1.25;;;22.90;55.70;;;;;;4935353;29;20039;-54
2022/10/27 11:07:29;;;;;;;5.88;0.82;;;22.90;55.60;;;;;;4938505;28;20040;-54
2022/10/27 11:10:03;;;;;;;11.30;1.23;;;22.90;55.60;;;;;;4935256;29;20052;-53
2022/10/27 11:12:34;;;;;;;12.40;1.80;;;23.00;55.60;;;;;;4934065;29;20056;-56
2022/10/27 11:15:07;;;;;;;7.72;1.75;;;23.00;55.60;;;;;;4938761;29;20040;-53
2022/10/27 11:17:36;;;;;;;2.63;0.90;;;23.00;55.70;;;;;;4932696;28;20047;-55
2022/10/27 11:20:06;;;;;;;4.03;0.68;;;23.10;55.90;;;;;;4944762;29;20806;-53
2022/10/27 11:22:34;;;;;;;3.92;1.23;;;23.10;55.80;;;;;;4942097;29;20059;-54
2022/10/27 11:25:06;;;;;;;6.00;0.80;;;23.10;55.80;;;;;;4936689;29;20054;-56
2022/10/27 11:27:41;;;;;;;5.97;1.17;;;23.20;55.80;;;;;;4938888;29;20044;-54
2022/10/27 11:30:20;;;;;;;4.00;0.73;;;23.20;55.70;;;;;;4931834;29;21154;-56
2022/10/27 11:32:57;;;;;;;4.25;0.50;;;23.30;55.60;;;;;;4925156;29;20170;-54
2022/10/27 11:35:31;;;;;;;5.40;0.77;;;23.30;55.50;;;;;;4936181;29;20423;-54
2022/10/27 11:38:05;;;;;;;10.85;0.63;;;23.40;55.50;;;;;;4936288;29;20052;-52
2022/10/27 11:40:44;;;;;;;6.43;1.02;;;23.50;55.20;;;;;;4935762;29;20050;-54
2022/10/27 11:43:15;;;;;;;2.35;0.43;;;23.60;55.10;;;;;;4929361;28;20051;-54
2022/10/27 11:45:49;;;;;;;2.97;0.20;;;23.60;54.90;;;;;;4929102;29;20126;-56
2022/10/27 11:48:22;;;;;;;5.65;0.20;;;23.70;54.80;;;;;;4928878;29;20036;-55
2022/10/27 11:50:52;;;;;;;2.67;0.43;;;23.70;54.60;;;;;;4928862;29;20031;-53
2022/10/27 11:53:20;;;;;;;9.65;1.00;;;23.80;54.40;;;;;;4929470;29;20123;-55
2022/10/27 11:56:06;;;;;;;4.47;0.55;;;23.90;54.20;;;;;;4927271;29;20138;-53
2022/10/27 11:58:40;;;;;;;7.00;1.00;;;24.00;54.10;;;;;;4927300;29;20086;-56
2022/10/27 12:01:17;;;;;;;3.53;0.63;;;24.00;53.80;;;;;;4927726;29;20050;-50
2022/10/27 12:04:06;;;;;;;4.28;0.57;;;24.10;54.20;;;;;;4929383;29;20082;-52
2022/10/27 12:06:42;;;;;;;7.30;0.85;;;24.10;53.20;;;;;;4925812;29;20095;-52
2022/10/27 12:09:15;;;;;;;;;;;24.20;53.10;;;;;;4927745;29;20532;-53
2022/10/27 12:11:56;;;;;;;11.27;1.05;;;24.20;53.20;;;;;;4929298;29;19937;-53
2022/10/27 12:14:29;;;;;;;6.60;0.95;;;24.30;52.80;;;;;;4929254;29;20413;-54
2022/10/27 12:17:04;;;;;;;3.30;1.40;;;24.40;52.50;;;;;;4929002;29;20047;-52
2022/10/27 12:19:38;;;;;;;5.67;0.87;;;24.40;52.40;;;;;;4928896;29;20583;-55
2022/10/27 12:22:11;;;;;;;4.95;0.77;;;24.50;52.20;;;;;;4927562;29;20039;-54
2022/10/27 12:24:48;;;;;;;6.70;0.30;;;24.60;52.10;;;;;;4929584;29;20048;-54
2022/10/27 12:27:22;;;;;;;2.78;0.70;;;24.70;52.50;;;;;;4927408;29;20131;-52
2022/10/27 12:29:52;;;;;;;7.95;1.10;;;24.70;51.70;;;;;;4930265;29;20040;-55
2022/10/27 12:32:23;;;;;;;7.07;0.52;;;24.70;51.60;;;;;;4930543;29;20136;-52
2022/10/27 12:34:57;;;;;;;3.78;0.47;;;24.80;51.50;;;;;;4930022;29;20099;-52
2022/10/27 12:37:34;;;;;;;4.03;0.70;;;24.90;51.50;;;;;;4930897;29;20174;-55
2022/10/27 12:40:08;;;;;;;4.57;0.35;;;24.90;51.40;;;;;;4934089;29;20091;-54
2022/10/27 12:42:46;;;;;;;7.03;1.05;;;25.00;51.20;;;;;;4933576;29;20146;-53
2022/10/27 12:45:30;;;;;;;2.97;0.63;;;25.10;51.10;;;;;;4933833;29;20070;-54
2022/10/27 12:48:07;;;;;;;8.60;0.70;;;25.20;50.80;;;;;;4933472;29;20582;-49
2022/10/27 12:50:42;;;;;;;2.58;0.93;;;25.20;50.70;;;;;;4933615;29;20512;-56
2022/10/27 12:53:21;;;;;;;7.85;0.77;;;25.30;50.70;;;;;;4933799;29;20140;-49
2022/10/27 12:55:54;;;;;;;1.55;0.77;;;25.30;51.20;;;;;;4933479;29;20488;-51
2022/10/27 12:58:33;;;;;;;6.70;0.70;;;25.30;50.50;;;;;;4932715;29;20072;-50
2022/10/27 13:01:14;;;;;;;7.22;0.30;;;25.40;50.40;;;;;;4929451;29;20063;-67
2022/10/27 13:04:00;;;;;;;5.25;0.30;;;25.50;50.50;;;;;;4920274;29;20044;-47